sensor_id;sensor_type;location;lat;lon;timestamp;temperature;humidity
47310;DHT22;33046;52.270;6.832;2024-03-08T00:01:55;6.60;99.90
47310;DHT22;33046;52.270;6.832;2024-03-08T00:04:03;6.50;99.90
47310;DHT22;33046;52.270;6.832;2024-03-08T00:06:11;6.50;99.90
47310;DHT22;33046;52.270;6.832;2024-03-08T00:08:18;6.50;99.90
47310;DHT22;33046;52.270;6.832;2024-03-08T00:10:25;6.50;99.90
47310;DHT22;33046;52.270;6.832;2024-03-08T00:12:33;6.50;99.90
47310;DHT22;33046;52.270;6.832;2024-03-08T00:14:40;6.50;99.90
47310;DHT22;33046;52.270;6.832;2024-03-08T00:16:47;6.50;99.90
47310;DHT22;33046;52.270;6.832;2024-03-08T00:18:54;6.50;99.90
47310;DHT22;33046;52.270;6.832;2024-03-08T00:21:01;6.40;99.90
47310;DHT22;33046;52.270;6.832;2024-03-08T00:23:09;6.40;99.90
47310;DHT22;33046;52.270;6.832;2024-03-08T00:25:16;6.40;99.90
47310;DHT22;33046;52.270;6.832;2024-03-08T00:27:23;6.40;99.90
47310;DHT22;33046;52.270;6.832;2024-03-08T00:29:29;6.40;99.90
47310;DHT22;33046;52.270;6.832;2024-03-08T00:31:36;6.40;99.90
47310;DHT22;33046;52.270;6.832;2024-03-08T00:33:43;6.40;99.90
47310;DHT22;33046;52.270;6.832;2024-03-08T00:35:50;6.40;99.90
47310;DHT22;33046;52.270;6.832;2024-03-08T00:37:57;6.30;99.90
47310;DHT22;33046;52.270;6.832;2024-03-08T00:40:06;6.40;99.90
47310;DHT22;33046;52.270;6.832;2024-03-08T00:42:13;6.30;99.90
47310;DHT22;33046;52.270;6.832;2024-03-08T00:44:20;6.30;99.90
47310;DHT22;33046;52.270;6.832;2024-03-08T00:46:27;6.30;99.90
47310;DHT22;33046;52.270;6.832;2024-03-08T00:48:34;6.30;99.90
47310;DHT22;33046;52.270;6.832;2024-03-08T00:50:41;6.30;99.90
47310;DHT22;33046;52.270;6.832;2024-03-08T00:52:48;6.30;99.90
47310;DHT22;33046;52.270;6.832;2024-03-08T00:54:55;6.30;99.90
47310;DHT22;33046;52.270;6.832;2024-03-08T00:57:03;6.30;99.90
47310;DHT22;33046;52.270;6.832;2024-03-08T00:59:10;6.30;99.90
47310;DHT22;33046;52.270;6.832;2024-03-08T01:01:18;6.30;99.90
47310;DHT22;33046;52.270;6.832;2024-03-08T01:03:25;6.30;99.90
47310;DHT22;33046;52.270;6.832;2024-03-08T01:05:32;6.20;99.90
47310;DHT22;33046;52.270;6.832;2024-03-08T01:07:39;6.20;99.90
47310;DHT22;33046;52.270;6.832;2024-03-08T01:09:46;6.20;99.90
47310;DHT22;33046;52.270;6.832;2024-03-08T01:11:53;6.20;99.90
47310;DHT22;33046;52.270;6.832;2024-03-08T01:14:02;6.20;99.90
47310;DHT22;33046;52.270;6.832;2024-03-08T01:16:08;6.20;99.90
47310;DHT22;33046;52.270;6.832;2024-03-08T01:18:16;6.20;99.90
47310;DHT22;33046;52.270;6.832;2024-03-08T01:20:23;6.20;99.90
47310;DHT22;33046;52.270;6.832;2024-03-08T01:22:29;6.20;99.90
47310;DHT22;33046;52.270;6.832;2024-03-08T01:24:36;6.20;99.90
47310;DHT22;33046;52.270;6.832;2024-03-08T01:26:43;6.10;99.90
47310;DHT22;33046;52.270;6.832;2024-03-08T01:28:50;6.10;99.90
47310;DHT22;33046;52.270;6.832;2024-03-08T01:30:58;6.10;99.90
47310;DHT22;33046;52.270;6.832;2024-03-08T01:33:05;6.10;99.90
47310;DHT22;33046;52.270;6.832;2024-03-08T01:35:12;6.10;99.90
47310;DHT22;33046;52.270;6.832;2024-03-08T01:37:19;6.10;99.90
47310;DHT22;33046;52.270;6.832;2024-03-08T01:39:26;6.10;99.90
47310;DHT22;33046;52.270;6.832;2024-03-08T01:41:32;6.10;99.90
47310;DHT22;33046;52.270;6.832;2024-03-08T01:43:39;6.10;99.90
47310;DHT22;33046;52.270;6.832;2024-03-08T01:45:46;6.10;99.90
47310;DHT22;33046;52.270;6.832;2024-03-08T01:47:55;6.00;99.90
47310;DHT22;33046;52.270;6.832;2024-03-08T01:50:02;6.00;99.90
47310;DHT22;33046;52.270;6.832;2024-03-08T01:52:09;6.00;99.90
47310;DHT22;33046;52.270;6.832;2024-03-08T01:54:17;6.00;99.90
47310;DHT22;33046;52.270;6.832;2024-03-08T01:56:25;6.00;99.90
47310;DHT22;33046;52.270;6.832;2024-03-08T01:58:32;6.00;99.90
47310;DHT22;33046;52.270;6.832;2024-03-08T02:00:40;6.00;99.90
47310;DHT22;33046;52.270;6.832;2024-03-08T02:02:49;6.00;99.90
47310;DHT22;33046;52.270;6.832;2024-03-08T02:05:00;6.00;99.90
47310;DHT22;33046;52.270;6.832;2024-03-08T02:07:07;6.00;99.90
47310;DHT22;33046;52.270;6.832;2024-03-08T02:09:15;6.00;99.90
47310;DHT22;33046;52.270;6.832;2024-03-08T02:11:22;6.00;99.90
47310;DHT22;33046;52.270;6.832;2024-03-08T02:13:29;5.90;99.90
47310;DHT22;33046;52.270;6.832;2024-03-08T02:15:55;5.90;99.90
47310;DHT22;33046;52.270;6.832;2024-03-08T02:18:02;5.90;99.90
47310;DHT22;33046;52.270;6.832;2024-03-08T02:20:11;5.90;99.90
47310;DHT22;33046;52.270;6.832;2024-03-08T02:22:19;5.90;99.90
47310;DHT22;33046;52.270;6.832;2024-03-08T02:24:26;5.90;99.90
47310;DHT22;33046;52.270;6.832;2024-03-08T02:26:33;5.90;99.90
47310;DHT22;33046;52.270;6.832;2024-03-08T02:28:40;5.80;99.90
47310;DHT22;33046;52.270;6.832;2024-03-08T02:30:47;5.90;99.90
47310;DHT22;33046;52.270;6.832;2024-03-08T02:32:54;5.90;99.90
47310;DHT22;33046;52.270;6.832;2024-03-08T02:35:01;5.80;99.90
47310;DHT22;33046;52.270;6.832;2024-03-08T02:37:07;5.80;99.90
47310;DHT22;33046;52.270;6.832;2024-03-08T02:39:16;5.80;99.90
47310;DHT22;33046;52.270;6.832;2024-03-08T02:41:22;5.80;99.90
47310;DHT22;33046;52.270;6.832;2024-03-08T02:43:29;5.80;99.90
47310;DHT22;33046;52.270;6.832;2024-03-08T02:45:36;5.80;99.90
47310;DHT22;33046;52.270;6.832;2024-03-08T02:47:43;5.80;99.90
47310;DHT22;33046;52.270;6.832;2024-03-08T02:49:50;5.80;99.90
47310;DHT22;33046;52.270;6.832;2024-03-08T02:51:57;5.80;99.90
47310;DHT22;33046;52.270;6.832;2024-03-08T02:54:04;5.80;99.90
47310;DHT22;33046;52.270;6.832;2024-03-08T02:56:12;5.70;99.90
47310;DHT22;33046;52.270;6.832;2024-03-08T02:58:19;5.80;99.90
47310;DHT22;33046;52.270;6.832;2024-03-08T03:00:26;5.80;99.90
47310;DHT22;33046;52.270;6.832;2024-03-08T03:02:33;5.70;99.90
47310;DHT22;33046;52.270;6.832;2024-03-08T03:04:40;5.70;99.90
47310;DHT22;33046;52.270;6.832;2024-03-08T03:06:47;5.70;99.90
47310;DHT22;33046;52.270;6.832;2024-03-08T03:08:54;5.70;99.90
47310;DHT22;33046;52.270;6.832;2024-03-08T03:11:01;5.70;99.90
47310;DHT22;33046;52.270;6.832;2024-03-08T03:13:09;5.70;99.90
47310;DHT22;33046;52.270;6.832;2024-03-08T03:15:16;5.70;99.90
47310;DHT22;33046;52.270;6.832;2024-03-08T03:17:23;5.70;99.90
47310;DHT22;33046;52.270;6.832;2024-03-08T03:19:30;5.70;99.90
47310;DHT22;33046;52.270;6.832;2024-03-08T03:21:37;5.60;99.90
47310;DHT22;33046;52.270;6.832;2024-03-08T03:23:44;5.70;99.90
47310;DHT22;33046;52.270;6.832;2024-03-08T03:25:51;5.60;99.90
47310;DHT22;33046;52.270;6.832;2024-03-08T03:27:57;5.60;99.90
47310;DHT22;33046;52.270;6.832;2024-03-08T03:30:07;5.60;99.90
47310;DHT22;33046;52.270;6.832;2024-03-08T03:32:14;5.60;99.90
47310;DHT22;33046;52.270;6.832;2024-03-08T03:34:21;5.60;99.90
47310;DHT22;33046;52.270;6.832;2024-03-08T03:36:28;5.60;99.90
47310;DHT22;33046;52.270;6.832;2024-03-08T03:38:35;5.60;99.90
47310;DHT22;33046;52.270;6.832;2024-03-08T03:40:42;5.60;99.90
47310;DHT22;33046;52.270;6.832;2024-03-08T03:42:49;5.60;99.90
47310;DHT22;33046;52.270;6.832;2024-03-08T03:44:55;5.60;99.90
47310;DHT22;33046;52.270;6.832;2024-03-08T03:47:04;5.60;99.90
47310;DHT22;33046;52.270;6.832;2024-03-08T03:49:11;5.60;99.90
47310;DHT22;33046;52.270;6.832;2024-03-08T03:51:17;5.60;99.90
47310;DHT22;33046;52.270;6.832;2024-03-08T03:53:24;5.50;99.90
47310;DHT22;33046;52.270;6.832;2024-03-08T03:55:31;5.50;99.90
47310;DHT22;33046;52.270;6.832;2024-03-08T03:57:38;5.50;99.90
47310;DHT22;33046;52.270;6.832;2024-03-08T03:59:45;5.50;99.90
47310;DHT22;33046;52.270;6.832;2024-03-08T04:01:52;5.50;99.90
47310;DHT22;33046;52.270;6.832;2024-03-08T04:04:00;5.50;99.90
47310;DHT22;33046;52.270;6.832;2024-03-08T04:06:07;5.50;99.90
47310;DHT22;33046;52.270;6.832;2024-03-08T04:08:14;5.50;99.90
47310;DHT22;33046;52.270;6.832;2024-03-08T04:10:21;5.50;99.90
47310;DHT22;33046;52.270;6.832;2024-03-08T04:12:28;5.50;99.90
47310;DHT22;33046;52.270;6.832;2024-03-08T04:14:35;5.50;99.90
47310;DHT22;33046;52.270;6.832;2024-03-08T04:16:41;5.40;99.90
47310;DHT22;33046;52.270;6.832;2024-03-08T04:18:48;5.40;99.90
47310;DHT22;33046;52.270;6.832;2024-03-08T04:20:57;5.40;99.90
47310;DHT22;33046;52.270;6.832;2024-03-08T04:23:04;5.40;99.90
47310;DHT22;33046;52.270;6.832;2024-03-08T04:25:10;5.40;99.90
47310;DHT22;33046;52.270;6.832;2024-03-08T04:27:17;5.40;99.90
47310;DHT22;33046;52.270;6.832;2024-03-08T04:29:24;5.40;99.90
47310;DHT22;33046;52.270;6.832;2024-03-08T04:31:31;5.40;99.90
47310;DHT22;33046;52.270;6.832;2024-03-08T04:33:38;5.40;99.90
47310;DHT22;33046;52.270;6.832;2024-03-08T04:35:46;5.30;99.90
47310;DHT22;33046;52.270;6.832;2024-03-08T04:37:54;5.30;99.90
47310;DHT22;33046;52.270;6.832;2024-03-08T04:40:01;5.40;99.90
47310;DHT22;33046;52.270;6.832;2024-03-08T04:42:07;5.40;99.90
47310;DHT22;33046;52.270;6.832;2024-03-08T04:44:15;5.30;99.90
47310;DHT22;33046;52.270;6.832;2024-03-08T04:46:21;5.30;99.90
47310;DHT22;33046;52.270;6.832;2024-03-08T04:48:28;5.30;99.90
47310;DHT22;33046;52.270;6.832;2024-03-08T04:50:35;5.30;99.90
47310;DHT22;33046;52.270;6.832;2024-03-08T04:52:42;5.30;99.90
47310;DHT22;33046;52.270;6.832;2024-03-08T04:54:50;5.30;99.90
47310;DHT22;33046;52.270;6.832;2024-03-08T04:56:57;5.30;99.90
47310;DHT22;33046;52.270;6.832;2024-03-08T04:59:04;5.20;99.90
47310;DHT22;33046;52.270;6.832;2024-03-08T05:01:11;5.30;99.90
47310;DHT22;33046;52.270;6.832;2024-03-08T05:03:18;5.20;99.90
47310;DHT22;33046;52.270;6.832;2024-03-08T05:05:25;5.20;99.90
47310;DHT22;33046;52.270;6.832;2024-03-08T05:07:31;5.20;99.90
47310;DHT22;33046;52.270;6.832;2024-03-08T05:09:38;5.20;99.90
47310;DHT22;33046;52.270;6.832;2024-03-08T05:11:47;5.20;99.90
47310;DHT22;33046;52.270;6.832;2024-03-08T05:13:54;5.20;99.90
47310;DHT22;33046;52.270;6.832;2024-03-08T05:16:00;5.20;99.90
47310;DHT22;33046;52.270;6.832;2024-03-08T05:18:07;5.20;99.90
47310;DHT22;33046;52.270;6.832;2024-03-08T05:20:14;5.20;99.90
47310;DHT22;33046;52.270;6.832;2024-03-08T05:22:21;5.20;99.90
47310;DHT22;33046;52.270;6.832;2024-03-08T05:24:28;5.20;99.90
47310;DHT22;33046;52.270;6.832;2024-03-08T05:26:35;5.20;99.90
47310;DHT22;33046;52.270;6.832;2024-03-08T05:28:43;5.20;99.90
47310;DHT22;33046;52.270;6.832;2024-03-08T05:30:50;5.10;99.90
47310;DHT22;33046;52.270;6.832;2024-03-08T05:32:57;5.10;99.90
47310;DHT22;33046;52.270;6.832;2024-03-08T05:35:05;5.20;99.90
47310;DHT22;33046;52.270;6.832;2024-03-08T05:37:12;5.10;99.90
47310;DHT22;33046;52.270;6.832;2024-03-08T05:39:19;5.10;99.90
47310;DHT22;33046;52.270;6.832;2024-03-08T05:41:25;5.10;99.90
47310;DHT22;33046;52.270;6.832;2024-03-08T05:43:32;5.10;99.90
47310;DHT22;33046;52.270;6.832;2024-03-08T05:45:40;5.10;99.90
47310;DHT22;33046;52.270;6.832;2024-03-08T05:47:47;5.10;99.90
47310;DHT22;33046;52.270;6.832;2024-03-08T05:49:54;5.10;99.90
47310;DHT22;33046;52.270;6.832;2024-03-08T05:52:01;5.10;99.90
47310;DHT22;33046;52.270;6.832;2024-03-08T05:54:09;5.10;99.90
47310;DHT22;33046;52.270;6.832;2024-03-08T05:56:16;5.10;99.90
47310;DHT22;33046;52.270;6.832;2024-03-08T05:58:23;5.00;99.90
47310;DHT22;33046;52.270;6.832;2024-03-08T06:00:29;5.00;99.90
47310;DHT22;33046;52.270;6.832;2024-03-08T06:02:38;5.00;99.90
47310;DHT22;33046;52.270;6.832;2024-03-08T06:04:45;5.10;99.90
47310;DHT22;33046;52.270;6.832;2024-03-08T06:06:52;5.00;99.90
47310;DHT22;33046;52.270;6.832;2024-03-08T06:08:59;5.00;99.90
47310;DHT22;33046;52.270;6.832;2024-03-08T06:11:06;5.00;99.90
47310;DHT22;33046;52.270;6.832;2024-03-08T06:13:12;5.00;99.90
47310;DHT22;33046;52.270;6.832;2024-03-08T06:15:19;5.00;99.90
47310;DHT22;33046;52.270;6.832;2024-03-08T06:17:26;5.00;99.90
47310;DHT22;33046;52.270;6.832;2024-03-08T06:19:35;5.00;99.90
47310;DHT22;33046;52.270;6.832;2024-03-08T06:21:41;5.00;99.90
47310;DHT22;33046;52.270;6.832;2024-03-08T06:23:48;5.00;99.90
47310;DHT22;33046;52.270;6.832;2024-03-08T06:25:55;5.00;99.90
47310;DHT22;33046;52.270;6.832;2024-03-08T06:28:02;5.00;99.90
47310;DHT22;33046;52.270;6.832;2024-03-08T06:30:10;5.00;99.90
47310;DHT22;33046;52.270;6.832;2024-03-08T06:32:17;5.00;99.90
47310;DHT22;33046;52.270;6.832;2024-03-08T06:34:24;5.00;99.90
47310;DHT22;33046;52.270;6.832;2024-03-08T06:36:32;5.00;99.90
47310;DHT22;33046;52.270;6.832;2024-03-08T06:38:39;5.00;99.90
47310;DHT22;33046;52.270;6.832;2024-03-08T06:40:46;5.00;99.90
47310;DHT22;33046;52.270;6.832;2024-03-08T06:42:53;5.00;99.90
47310;DHT22;33046;52.270;6.832;2024-03-08T06:44:59;5.00;99.90
47310;DHT22;33046;52.270;6.832;2024-03-08T06:47:06;5.00;99.90
47310;DHT22;33046;52.270;6.832;2024-03-08T06:49:13;5.00;99.90
47310;DHT22;33046;52.270;6.832;2024-03-08T06:51:20;5.10;99.90
47310;DHT22;33046;52.270;6.832;2024-03-08T06:53:28;5.00;99.90
47310;DHT22;33046;52.270;6.832;2024-03-08T06:55:35;5.00;99.90
47310;DHT22;33046;52.270;6.832;2024-03-08T06:57:42;5.00;99.90
47310;DHT22;33046;52.270;6.832;2024-03-08T06:59:49;5.10;99.90
47310;DHT22;33046;52.270;6.832;2024-03-08T07:01:56;5.10;99.90
47310;DHT22;33046;52.270;6.832;2024-03-08T07:04:02;5.10;99.90
47310;DHT22;33046;52.270;6.832;2024-03-08T07:06:09;5.10;99.90
47310;DHT22;33046;52.270;6.832;2024-03-08T07:08:16;5.10;99.90
47310;DHT22;33046;52.270;6.832;2024-03-08T07:10:24;5.10;99.90
47310;DHT22;33046;52.270;6.832;2024-03-08T07:12:31;5.10;99.90
47310;DHT22;33046;52.270;6.832;2024-03-08T07:14:38;5.10;99.90
47310;DHT22;33046;52.270;6.832;2024-03-08T07:16:45;5.20;99.90
47310;DHT22;33046;52.270;6.832;2024-03-08T07:18:52;5.20;99.90
47310;DHT22;33046;52.270;6.832;2024-03-08T07:20:59;5.20;99.90
47310;DHT22;33046;52.270;6.832;2024-03-08T07:23:05;5.20;99.90
47310;DHT22;33046;52.270;6.832;2024-03-08T07:25:12;5.20;99.90
47310;DHT22;33046;52.270;6.832;2024-03-08T07:27:21;5.20;99.90
47310;DHT22;33046;52.270;6.832;2024-03-08T07:29:27;5.20;99.90
47310;DHT22;33046;52.270;6.832;2024-03-08T07:31:34;5.20;99.90
47310;DHT22;33046;52.270;6.832;2024-03-08T07:33:41;5.30;99.90
47310;DHT22;33046;52.270;6.832;2024-03-08T07:35:48;5.30;99.90
47310;DHT22;33046;52.270;6.832;2024-03-08T07:37:55;5.30;99.90
47310;DHT22;33046;52.270;6.832;2024-03-08T07:40:02;5.30;99.90
47310;DHT22;33046;52.270;6.832;2024-03-08T07:42:09;5.40;99.90
47310;DHT22;33046;52.270;6.832;2024-03-08T07:44:17;5.40;99.90
47310;DHT22;33046;52.270;6.832;2024-03-08T07:46:24;5.40;99.90
47310;DHT22;33046;52.270;6.832;2024-03-08T07:48:32;5.40;99.90
47310;DHT22;33046;52.270;6.832;2024-03-08T07:50:39;5.50;99.90
47310;DHT22;33046;52.270;6.832;2024-03-08T07:52:46;5.50;99.90
47310;DHT22;33046;52.270;6.832;2024-03-08T07:54:53;5.50;99.90
47310;DHT22;33046;52.270;6.832;2024-03-08T07:57:00;5.50;99.90
47310;DHT22;33046;52.270;6.832;2024-03-08T07:59:07;5.60;99.90
47310;DHT22;33046;52.270;6.832;2024-03-08T08:01:17;5.60;99.90
47310;DHT22;33046;52.270;6.832;2024-03-08T08:03:24;5.60;99.90
47310;DHT22;33046;52.270;6.832;2024-03-08T08:05:31;5.70;99.90
47310;DHT22;33046;52.270;6.832;2024-03-08T08:07:38;5.70;99.90
47310;DHT22;33046;52.270;6.832;2024-03-08T08:09:45;5.70;99.90
47310;DHT22;33046;52.270;6.832;2024-03-08T08:11:52;5.80;99.90
47310;DHT22;33046;52.270;6.832;2024-03-08T08:13:59;5.80;99.90
47310;DHT22;33046;52.270;6.832;2024-03-08T08:16:06;5.90;99.90
47310;DHT22;33046;52.270;6.832;2024-03-08T08:18:14;5.90;99.90
47310;DHT22;33046;52.270;6.832;2024-03-08T08:20:21;5.90;99.90
47310;DHT22;33046;52.270;6.832;2024-03-08T08:22:28;6.00;99.90
47310;DHT22;33046;52.270;6.832;2024-03-08T08:24:34;6.00;99.90
47310;DHT22;33046;52.270;6.832;2024-03-08T08:26:41;6.00;99.90
47310;DHT22;33046;52.270;6.832;2024-03-08T08:28:48;6.00;99.90
47310;DHT22;33046;52.270;6.832;2024-03-08T08:30:55;6.10;99.90
47310;DHT22;33046;52.270;6.832;2024-03-08T08:33:02;6.10;99.90
47310;DHT22;33046;52.270;6.832;2024-03-08T08:35:10;6.10;99.90
47310;DHT22;33046;52.270;6.832;2024-03-08T08:37:17;6.10;99.90
47310;DHT22;33046;52.270;6.832;2024-03-08T08:39:25;6.20;99.90
47310;DHT22;33046;52.270;6.832;2024-03-08T08:41:32;6.20;99.90
47310;DHT22;33046;52.270;6.832;2024-03-08T08:43:39;6.20;99.90
47310;DHT22;33046;52.270;6.832;2024-03-08T08:45:46;6.20;99.90
47310;DHT22;33046;52.270;6.832;2024-03-08T08:47:53;6.30;99.90
47310;DHT22;33046;52.270;6.832;2024-03-08T08:50:00;6.30;99.90
47310;DHT22;33046;52.270;6.832;2024-03-08T08:52:08;6.30;99.90
47310;DHT22;33046;52.270;6.832;2024-03-08T08:54:15;6.30;99.90
47310;DHT22;33046;52.270;6.832;2024-03-08T08:56:22;6.40;99.90
47310;DHT22;33046;52.270;6.832;2024-03-08T08:58:29;6.40;99.90
47310;DHT22;33046;52.270;6.832;2024-03-08T09:00:36;6.50;99.90
47310;DHT22;33046;52.270;6.832;2024-03-08T09:02:43;6.50;99.90
47310;DHT22;33046;52.270;6.832;2024-03-08T09:04:49;6.50;99.90
47310;DHT22;33046;52.270;6.832;2024-03-08T09:06:56;6.60;99.90
47310;DHT22;33046;52.270;6.832;2024-03-08T09:09:05;6.60;99.90
47310;DHT22;33046;52.270;6.832;2024-03-08T09:11:12;6.60;99.90
47310;DHT22;33046;52.270;6.832;2024-03-08T09:13:19;6.70;99.90
47310;DHT22;33046;52.270;6.832;2024-03-08T09:15:27;6.70;99.90
47310;DHT22;33046;52.270;6.832;2024-03-08T09:17:34;6.70;99.90
47310;DHT22;33046;52.270;6.832;2024-03-08T09:19:41;6.80;99.90
47310;DHT22;33046;52.270;6.832;2024-03-08T09:21:49;6.80;99.90
47310;DHT22;33046;52.270;6.832;2024-03-08T09:23:56;6.90;99.90
47310;DHT22;33046;52.270;6.832;2024-03-08T09:26:04;6.90;99.90
47310;DHT22;33046;52.270;6.832;2024-03-08T09:28:12;7.00;99.90
47310;DHT22;33046;52.270;6.832;2024-03-08T09:30:19;7.00;99.90
47310;DHT22;33046;52.270;6.832;2024-03-08T09:32:26;7.00;99.90
47310;DHT22;33046;52.270;6.832;2024-03-08T09:34:33;7.10;99.70
47310;DHT22;33046;52.270;6.832;2024-03-08T09:36:42;7.10;99.70
47310;DHT22;33046;52.270;6.832;2024-03-08T09:38:48;7.10;99.90
47310;DHT22;33046;52.270;6.832;2024-03-08T09:40:55;7.20;99.90
47310;DHT22;33046;52.270;6.832;2024-03-08T09:43:04;7.20;99.40
47310;DHT22;33046;52.270;6.832;2024-03-08T09:45:12;7.30;99.60
47310;DHT22;33046;52.270;6.832;2024-03-08T09:47:22;7.30;99.30
47310;DHT22;33046;52.270;6.832;2024-03-08T09:49:31;7.30;99.30
47310;DHT22;33046;52.270;6.832;2024-03-08T09:51:38;7.40;99.30
47310;DHT22;33046;52.270;6.832;2024-03-08T09:53:45;7.40;99.60
47310;DHT22;33046;52.270;6.832;2024-03-08T09:55:52;7.50;99.40
47310;DHT22;33046;52.270;6.832;2024-03-08T09:58:00;7.50;99.50
47310;DHT22;33046;52.270;6.832;2024-03-08T10:00:13;7.50;99.80
47310;DHT22;33046;52.270;6.832;2024-03-08T10:02:20;7.60;99.80
47310;DHT22;33046;52.270;6.832;2024-03-08T10:04:26;7.70;99.90
47310;DHT22;33046;52.270;6.832;2024-03-08T10:06:35;7.70;99.90
47310;DHT22;33046;52.270;6.832;2024-03-08T10:08:41;7.70;99.90
47310;DHT22;33046;52.270;6.832;2024-03-08T10:10:51;7.80;99.30
47310;DHT22;33046;52.270;6.832;2024-03-08T10:12:58;7.80;99.20
47310;DHT22;33046;52.270;6.832;2024-03-08T10:15:06;7.80;99.50
47310;DHT22;33046;52.270;6.832;2024-03-08T10:17:15;7.90;99.30
47310;DHT22;33046;52.270;6.832;2024-03-08T10:19:22;7.90;99.00
47310;DHT22;33046;52.270;6.832;2024-03-08T10:21:29;8.00;99.10
47310;DHT22;33046;52.270;6.832;2024-03-08T10:23:37;8.00;99.30
47310;DHT22;33046;52.270;6.832;2024-03-08T10:25:44;8.10;99.10
47310;DHT22;33046;52.270;6.832;2024-03-08T10:27:50;8.10;98.90
47310;DHT22;33046;52.270;6.832;2024-03-08T10:29:57;8.20;98.90
47310;DHT22;33046;52.270;6.832;2024-03-08T10:32:06;8.20;98.50
47310;DHT22;33046;52.270;6.832;2024-03-08T10:34:15;8.30;98.80
47310;DHT22;33046;52.270;6.832;2024-03-08T10:36:22;8.30;98.60
47310;DHT22;33046;52.270;6.832;2024-03-08T10:38:31;8.30;99.30
47310;DHT22;33046;52.270;6.832;2024-03-08T10:40:39;8.40;99.40
47310;DHT22;33046;52.270;6.832;2024-03-08T10:42:52;8.40;99.30
47310;DHT22;33046;52.270;6.832;2024-03-08T10:45:05;8.50;99.70
47310;DHT22;33046;52.270;6.832;2024-03-08T10:47:17;8.50;99.10
47310;DHT22;33046;52.270;6.832;2024-03-08T10:49:30;8.60;98.90
47310;DHT22;33046;52.270;6.832;2024-03-08T10:51:37;8.60;98.40
47310;DHT22;33046;52.270;6.832;2024-03-08T10:53:46;8.60;98.20
47310;DHT22;33046;52.270;6.832;2024-03-08T10:55:56;8.60;98.30
47310;DHT22;33046;52.270;6.832;2024-03-08T10:58:03;8.70;98.00
47310;DHT22;33046;52.270;6.832;2024-03-08T11:00:12;8.70;98.60
47310;DHT22;33046;52.270;6.832;2024-03-08T11:02:20;8.80;98.80
47310;DHT22;33046;52.270;6.832;2024-03-08T11:04:28;8.80;98.60
47310;DHT22;33046;52.270;6.832;2024-03-08T11:06:45;8.80;98.40
47310;DHT22;33046;52.270;6.832;2024-03-08T11:08:52;8.90;98.10
47310;DHT22;33046;52.270;6.832;2024-03-08T11:11:01;9.00;98.20
47310;DHT22;33046;52.270;6.832;2024-03-08T11:13:32;9.00;98.10
47310;DHT22;33046;52.270;6.832;2024-03-08T11:15:39;9.00;98.50
47310;DHT22;33046;52.270;6.832;2024-03-08T11:17:47;9.10;98.20
47310;DHT22;33046;52.270;6.832;2024-03-08T11:19:56;9.10;98.40
47310;DHT22;33046;52.270;6.832;2024-03-08T11:22:04;9.20;97.90
47310;DHT22;33046;52.270;6.832;2024-03-08T11:24:12;9.20;97.80
47310;DHT22;33046;52.270;6.832;2024-03-08T11:26:20;9.30;97.70
47310;DHT22;33046;52.270;6.832;2024-03-08T11:28:27;9.30;97.90
47310;DHT22;33046;52.270;6.832;2024-03-08T11:30:34;9.30;97.70
47310;DHT22;33046;52.270;6.832;2024-03-08T11:32:45;9.30;97.00
47310;DHT22;33046;52.270;6.832;2024-03-08T11:34:53;9.40;97.60
47310;DHT22;33046;52.270;6.832;2024-03-08T11:37:03;9.40;97.20
47310;DHT22;33046;52.270;6.832;2024-03-08T11:39:10;9.40;97.30
47310;DHT22;33046;52.270;6.832;2024-03-08T11:41:18;9.50;97.10
47310;DHT22;33046;52.270;6.832;2024-03-08T11:43:25;9.50;96.80
47310;DHT22;33046;52.270;6.832;2024-03-08T11:45:32;9.50;96.60
47310;DHT22;33046;52.270;6.832;2024-03-08T11:47:39;9.60;96.80
47310;DHT22;33046;52.270;6.832;2024-03-08T11:49:46;9.60;96.40
47310;DHT22;33046;52.270;6.832;2024-03-08T11:51:53;9.60;96.90
47310;DHT22;33046;52.270;6.832;2024-03-08T11:54:01;9.70;96.50
47310;DHT22;33046;52.270;6.832;2024-03-08T11:56:08;9.70;96.50
47310;DHT22;33046;52.270;6.832;2024-03-08T11:58:15;9.70;96.20
47310;DHT22;33046;52.270;6.832;2024-03-08T12:00:22;9.70;96.10
47310;DHT22;33046;52.270;6.832;2024-03-08T12:02:29;9.70;96.00
47310;DHT22;33046;52.270;6.832;2024-03-08T12:04:36;9.80;95.20
47310;DHT22;33046;52.270;6.832;2024-03-08T12:06:43;9.80;96.10
47310;DHT22;33046;52.270;6.832;2024-03-08T12:08:50;9.90;95.70
47310;DHT22;33046;52.270;6.832;2024-03-08T12:10:58;9.90;95.40
47310;DHT22;33046;52.270;6.832;2024-03-08T12:13:07;9.90;95.30
47310;DHT22;33046;52.270;6.832;2024-03-08T12:15:17;9.90;95.50
47310;DHT22;33046;52.270;6.832;2024-03-08T12:17:24;10.00;95.50
47310;DHT22;33046;52.270;6.832;2024-03-08T12:19:31;10.00;95.60
47310;DHT22;33046;52.270;6.832;2024-03-08T12:21:38;10.00;96.30
47310;DHT22;33046;52.270;6.832;2024-03-08T12:23:45;10.10;95.40
47310;DHT22;33046;52.270;6.832;2024-03-08T12:25:52;10.10;94.40
47310;DHT22;33046;52.270;6.832;2024-03-08T12:28:08;10.10;95.20
47310;DHT22;33046;52.270;6.832;2024-03-08T12:30:20;10.10;94.20
47310;DHT22;33046;52.270;6.832;2024-03-08T12:32:27;10.20;94.00
47310;DHT22;33046;52.270;6.832;2024-03-08T12:34:34;10.20;93.90
47310;DHT22;33046;52.270;6.832;2024-03-08T12:36:45;10.20;93.30
47310;DHT22;33046;52.270;6.832;2024-03-08T12:38:53;10.10;93.50
47310;DHT22;33046;52.270;6.832;2024-03-08T12:41:03;10.20;93.50
47310;DHT22;33046;52.270;6.832;2024-03-08T12:43:11;10.20;93.70
47310;DHT22;33046;52.270;6.832;2024-03-08T12:45:18;10.20;94.50
47310;DHT22;33046;52.270;6.832;2024-03-08T12:47:25;10.30;93.80
47310;DHT22;33046;52.270;6.832;2024-03-08T12:49:32;10.20;94.20
47310;DHT22;33046;52.270;6.832;2024-03-08T12:51:39;10.30;93.00
47310;DHT22;33046;52.270;6.832;2024-03-08T12:53:46;10.30;93.30
47310;DHT22;33046;52.270;6.832;2024-03-08T12:55:53;10.30;94.20
47310;DHT22;33046;52.270;6.832;2024-03-08T12:57:59;10.30;93.70
47310;DHT22;33046;52.270;6.832;2024-03-08T13:00:09;10.30;93.60
47310;DHT22;33046;52.270;6.832;2024-03-08T13:02:16;10.30;93.40
47310;DHT22;33046;52.270;6.832;2024-03-08T13:04:23;10.30;93.70
47310;DHT22;33046;52.270;6.832;2024-03-08T13:06:30;10.30;93.70
47310;DHT22;33046;52.270;6.832;2024-03-08T13:08:37;10.30;93.40
47310;DHT22;33046;52.270;6.832;2024-03-08T13:10:44;10.40;92.70
47310;DHT22;33046;52.270;6.832;2024-03-08T13:12:51;10.30;92.50
47310;DHT22;33046;52.270;6.832;2024-03-08T13:14:59;10.30;92.60
47310;DHT22;33046;52.270;6.832;2024-03-08T13:17:07;10.40;92.20
47310;DHT22;33046;52.270;6.832;2024-03-08T13:19:14;10.40;91.70
47310;DHT22;33046;52.270;6.832;2024-03-08T13:21:21;10.40;92.80
47310;DHT22;33046;52.270;6.832;2024-03-08T13:23:28;10.40;93.40
47310;DHT22;33046;52.270;6.832;2024-03-08T13:25:34;10.40;92.50
47310;DHT22;33046;52.270;6.832;2024-03-08T13:27:41;10.40;92.80
47310;DHT22;33046;52.270;6.832;2024-03-08T13:29:49;10.40;93.00
47310;DHT22;33046;52.270;6.832;2024-03-08T13:31:57;10.40;92.90
47310;DHT22;33046;52.270;6.832;2024-03-08T13:34:05;10.40;92.40
47310;DHT22;33046;52.270;6.832;2024-03-08T13:36:13;10.40;92.70
47310;DHT22;33046;52.270;6.832;2024-03-08T13:38:20;10.40;92.60